aviador You're here:

OMAL Decoded Metar

AL AIN in UNITED ARAB EMIRATES
Report Time2017-08-19 11:00:00
UTC Time2017-08-19 11:07:49
Flight Rules vfr VFR
Wind240° at 05 kt
W.Decomp.*RWY 19: 3.3 kt HW 3.8 kt RCW
W.Rank240° ranks 34
Current wind is below 240° avg. (6.0)
Visibility9999 m
Phenomena:N/A
Clouds:Few 045 Hf
Expected CloudBase > 13,200 ft AGL from Temp-Dew spread
CeilingNone
Temp45°C (ISA +32)
Dew Point12°C (14% RH)
Heat Index44.0°C
AAT43.6°C
QNH1000 hPa
Density Alt5,013 ft
Elevation869 ft
Report Wrong Elevation
Raw Report
METAR OMAL 191100Z 24005KT 160V270 9999 FEW045 45/12 Q1000 NOSIG=

Extra information for OMAL:More info

Metar Taf Metar & Taf Last 4 Metars F.Rules Stats Wind Profile Meteogram Temp Stats Airport Information Weather charts Add Link Nearby VenuesMetar ALERT Operation Metar Decoded Social comments